Larsen Bay, Alaska
Current Conditions -  °F | °C
As of 1:53 PM on Saturday 20 Dec 2014 (Local Time) from PADQ Reporting Station
Overcast Overcast  
Wind Chill: 37°   Ceiling: 1500
Heat Index: 41°   Visibility: 7mi
Dew Point: 39°   Wind: 6mph
Humidity: 93%   Direction: 40°NE
Pressure: 28.8"   Gusts: NA
Location:  57.53°N, 153.99°W
Report Text: PADQ 202253Z 04005KT 7SM SCT008 BKN015 OVC034 05/04 A2880 RMK AO2 RAE2159 SLP752 P0000 T00500039
Loading
Personal Weather Stations






























Interactive Weather Map New forecast layout! Learn more

10-Day Weather Forecast

Advertisements
Track Severe Weather on mobile